Time;durP1;ratioP1;P1;durP2;ratioP2;P2;SDS_P1;SDS_P2;PMS_P1;PMS_P2;Temp;Humidity;BMP_temperature;BMP_pressure;BME280_temperature;BME280_humidity;BME280_pressure;Samples;Min_cycle;Max_cycle;Signal;HPM_P1;HPM_P2
2022/10/27 00:00:29;;;;;;;14.23;8.68;;;18.60;92.80;;;18.67;63.23;99564.78;5039909;28;20566;-77
2022/10/27 00:03:16;;;;;;;13.38;8.48;;;18.60;92.70;;;18.65;63.15;99567.84;5048644;28;20488;-77
2022/10/27 00:05:46;;;;;;;13.10;8.85;;;18.60;92.70;;;18.70;63.49;99568.84;5031313;28;20236;-77
2022/10/27 00:08:17;;;;;;;12.80;7.57;;;18.60;92.80;;;18.74;63.30;99567.09;5042892;28;20102;-77
2022/10/27 00:10:43;;;;;;;15.50;9.43;;;18.60;92.80;;;18.68;63.93;99571.91;5025258;28;20492;-77
2022/10/27 00:13:12;;;;;;;19.23;9.30;;;18.60;92.90;;;18.64;63.48;99571.69;5047348;28;20049;-77
2022/10/27 00:15:37;;;;;;;13.82;7.85;;;18.60;92.80;;;18.65;63.23;99573.34;5047993;28;20495;-77
2022/10/27 00:18:09;;;;;;;17.42;9.80;;;18.60;92.80;;;18.66;63.03;99569.47;5031152;28;20078;-77
2022/10/27 00:20:35;;;;;;;15.80;9.23;;;18.50;92.70;;;18.64;63.20;99577.19;5027344;28;20112;-77
2022/10/27 00:23:01;;;;;;;13.68;9.10;;;18.60;92.80;;;18.63;63.67;99577.53;5042835;28;20045;-77
2022/10/27 00:25:27;;;;;;;12.75;9.32;;;18.60;92.90;;;18.69;63.67;99576.28;5048233;28;20436;-77
2022/10/27 00:27:53;;;;;;;13.70;8.95;;;18.60;92.90;;;18.66;63.50;99582.41;5032403;28;20369;-77
2022/10/27 00:30:19;;;;;;;16.23;9.15;;;18.60;92.80;;;18.61;63.18;99572.31;5032886;28;20044;-77
2022/10/27 00:32:45;;;;;;;13.90;9.15;;;18.60;92.80;;;18.62;62.97;99576.72;5047840;28;20047;-77
2022/10/27 00:35:11;;;;;;;13.07;8.63;;;18.50;92.70;;;18.65;62.83;99584.34;5040563;28;20053;-77
2022/10/27 00:37:37;;;;;;;12.38;8.65;;;18.60;92.80;;;18.59;63.08;99574.56;5041189;28;20049;-77
2022/10/27 00:40:04;;;;;;;12.45;8.18;;;18.60;92.80;;;18.59;63.64;99568.25;5060083;28;20122;-77
2022/10/27 00:42:31;;;;;;;13.68;8.45;;;18.50;92.90;;;18.62;63.89;99573.97;5043359;28;20048;-77
2022/10/27 00:44:57;;;;;;;14.13;9.02;;;18.50;92.90;;;18.64;63.29;99576.38;5045475;28;20412;-77
2022/10/27 00:47:33;;;;;;;14.50;8.02;;;18.60;92.80;;;18.56;63.19;99579.88;5025917;28;20059;-77
2022/10/27 00:50:06;;;;;;;11.13;8.07;;;18.50;92.70;;;18.59;63.15;99585.53;5024688;28;20041;-77
2022/10/27 00:52:47;;;;;;;13.77;8.73;;;18.50;92.80;;;18.59;63.16;99573.75;5058469;28;20045;-77
2022/10/27 00:55:21;;;;;;;15.20;9.57;;;18.50;92.80;;;18.55;63.83;99581.81;5029908;28;20040;-77
2022/10/27 00:57:50;;;;;;;12.13;8.90;;;18.50;92.80;;;18.66;63.43;99585.13;5049280;28;20147;-77
2022/10/27 01:00:16;;;;;;;11.65;8.15;;;18.50;92.90;;;18.57;63.55;99586.97;5013613;28;20472;-77
2022/10/27 01:02:42;;;;;;;12.25;9.05;;;18.50;93.20;;;18.57;63.27;99585.06;5058462;28;20076;-77
2022/10/27 01:05:24;;;;;;;10.50;7.65;;;18.50;92.80;;;18.57;62.85;99589.72;5044833;28;20046;-77
2022/10/27 01:07:54;;;;;;;11.13;7.53;;;18.50;92.70;;;18.55;62.84;99583.75;5031321;28;20440;-77
2022/10/27 01:10:21;;;;;;;10.57;7.55;;;18.50;92.70;;;18.56;63.54;99586.16;4995508;28;20076;-77
2022/10/27 01:12:47;;;;;;;10.98;7.97;;;18.50;92.80;;;18.60;63.32;99586.38;5029360;28;20655;-77
2022/10/27 01:15:13;;;;;;;12.02;8.48;;;18.50;92.80;;;18.61;63.50;99594.31;5048450;28;20043;-77
2022/10/27 01:17:50;;;;;;;18.35;7.78;;;18.50;92.80;;;18.61;63.00;99588.00;5010903;28;20121;-77
2022/10/27 01:20:51;;;;;;;14.05;8.18;;;18.50;92.70;;;18.57;62.83;99585.06;5041064;28;20049;-77
2022/10/27 01:23:45;;;;;;;12.00;8.18;;;18.50;92.60;;;18.55;62.70;99594.75;5031309;28;20136;-77
2022/10/27 01:27:03;;;;;;;11.60;7.68;;;18.50;92.60;;;18.56;63.25;99586.16;5025479;28;20060;-77
2022/10/27 01:30:19;;;;;;;12.90;9.15;;;18.50;92.70;;;18.56;63.95;99585.38;5021126;28;20040;-77
2022/10/27 01:32:56;;;;;;;13.73;8.63;;;18.50;92.90;;;18.53;63.50;99577.75;5025442;28;20397;-77
2022/10/27 01:35:51;;;;;;;9.82;7.35;;;18.40;92.80;;;18.51;63.16;99590.97;5027718;28;20568;-77
2022/10/27 01:38:30;;;;;;;13.88;8.50;;;18.50;92.70;;;18.53;62.99;99591.47;5035057;28;20420;-77
2022/10/27 01:41:21;;;;;;;11.73;7.82;;;18.40;92.70;;;18.50;62.62;99576.41;5046715;28;20544;-77
2022/10/27 01:43:48;;;;;;;12.63;9.18;;;18.40;92.70;;;18.48;63.92;99583.34;5042891;28;20044;-77
2022/10/27 01:46:14;;;;;;;15.40;8.35;;;18.40;92.80;;;18.56;63.05;99586.16;5025413;28;20053;-77
2022/10/27 01:48:40;;;;;;;12.90;7.38;;;18.40;92.80;;;18.53;63.36;99583.25;5023501;28;20055;-77
2022/10/27 01:51:06;;;;;;;15.23;7.78;;;18.50;93.10;;;18.54;62.70;99593.09;5040484;28;20052;-77
2022/10/27 01:53:35;;;;;;;13.38;8.23;;;18.40;92.60;;;18.53;62.77;99596.97;5014320;28;20124;-77
2022/10/27 01:56:04;;;;;;;10.10;7.93;;;18.40;92.70;;;18.51;62.72;99588.22;5026207;28;20091;-77
2022/10/27 01:58:35;;;;;;;10.52;7.68;;;18.50;92.70;;;18.52;62.87;99596.16;5048706;28;20068;-77
2022/10/27 02:01:16;;;;;;;10.13;7.53;;;18.40;92.70;;;18.50;63.50;99603.09;5040802;28;20040;-77
2022/10/27 02:04:25;;;;;;;12.83;8.30;;;18.40;92.80;;;18.51;63.54;99607.44;5043440;28;20041;-77
2022/10/27 02:07:55;;;;;;;12.55;8.90;;;18.40;92.90;;;18.49;63.10;99601.44;5038692;28;20052;-77
2022/10/27 02:10:30;;;;;;;12.48;7.53;;;18.40;92.70;;;18.44;63.07;99605.94;4984856;28;20046;-77
2022/10/27 02:12:56;;;;;;;14.40;8.80;;;18.30;92.60;;;18.47;62.61;99604.50;4957896;28;20596;-77
2022/10/27 02:15:33;;;;;;;10.65;7.10;;;18.40;92.70;;;18.44;63.57;99602.34;4965477;28;20412;-77
2022/10/27 02:18:02;;;;;;;13.57;8.95;;;18.40;92.90;;;18.47;63.74;99604.50;5047229;28;20549;-77
2022/10/27 02:20:32;;;;;;;12.38;8.05;;;18.40;92.90;;;18.42;63.64;99602.69;5025481;28;20551;-77
2022/10/27 02:22:58;;;;;;;9.23;7.22;;;18.30;92.80;;;18.47;63.18;99604.50;5001107;28;20041;-77
2022/10/27 02:25:28;;;;;;;16.65;8.93;;;18.40;92.70;;;18.47;62.71;99606.41;5041538;28;20120;-77
2022/10/27 02:27:57;;;;;;;15.95;8.73;;;18.40;92.70;;;18.46;62.66;99602.06;5042788;28;20449;-77
2022/10/27 02:30:23;;;;;;;11.07;7.25;;;18.40;92.60;;;18.46;62.91;99613.06;5025848;28;20325;-77
2022/10/27 02:32:49;;;;;;;11.60;7.55;;;18.30;92.70;;;18.48;63.26;99610.81;5036637;28;20388;-77
2022/10/27 02:35:15;;;;;;;13.73;7.25;;;18.40;92.90;;;18.45;63.41;99612.25;5011078;28;20465;-77
2022/10/27 02:37:42;;;;;;;11.52;7.95;;;18.30;92.90;;;18.42;63.03;99610.91;5045100;28;20047;-77
2022/10/27 02:40:09;;;;;;;14.88;7.50;;;18.30;92.70;;;18.46;62.86;99618.53;5030513;28;20052;-77
2022/10/27 02:42:35;;;;;;;14.85;7.80;;;18.30;92.70;;;18.44;62.31;99616.09;5017920;28;20127;-77
2022/10/27 02:45:01;;;;;;;11.70;7.93;;;18.30;92.60;;;18.44;62.35;99616.94;5043923;28;20037;-77
2022/10/27 02:47:27;;;;;;;11.13;7.45;;;18.30;92.50;;;18.43;63.09;99615.28;5014533;28;20059;-77
2022/10/27 02:49:53;;;;;;;13.75;8.02;;;18.30;92.70;;;18.46;62.78;99613.06;5024499;28;20419;-77
2022/10/27 02:52:21;;;;;;;13.13;8.25;;;18.30;92.60;;;18.42;62.96;99619.16;5033743;28;20095;-77
2022/10/27 02:54:47;;;;;;;13.10;8.35;;;18.30;92.60;;;18.46;62.25;99619.34;5029908;28;20046;-77
2022/10/27 02:57:15;;;;;;;11.77;7.90;;;18.30;92.60;;;18.42;62.38;99619.16;5041832;28;20036;-77
2022/10/27 02:59:41;;;;;;;13.95;9.25;;;18.40;92.60;;;18.40;62.32;99621.38;5044654;28;20408;-77
2022/10/27 03:02:07;;;;;;;12.68;7.90;;;18.30;92.40;;;18.35;62.62;99618.75;5056219;28;20060;-77
2022/10/27 03:04:33;;;;;;;12.25;8.38;;;18.30;92.60;;;18.39;62.93;99630.75;5040793;28;20040;-77
2022/10/27 03:06:59;;;;;;;13.27;8.85;;;18.30;92.60;;;18.38;62.45;99634.59;5015897;28;20522;-77
2022/10/27 03:09:25;;;;;;;14.27;7.45;;;18.30;92.60;;;18.43;62.18;99630.94;5029254;28;20041;-77
2022/10/27 03:11:52;;;;;;;15.45;8.70;;;18.30;92.60;;;18.46;61.86;99637.78;5011567;28;20094;-77
2022/10/27 03:14:18;;;;;;;12.27;8.27;;;18.30;92.40;;;18.42;61.58;99637.59;5043982;28;20124;-77
2022/10/27 03:16:45;;;;;;;17.48;10.05;;;18.30;92.40;;;18.41;61.46;99638.69;5040179;28;20052;-77
2022/10/27 03:19:11;;;;;;;16.58;10.00;;;18.30;92.30;;;18.40;61.12;99637.06;5002764;28;20055;-77
2022/10/27 03:21:37;;;;;;;22.15;9.77;;;18.30;92.20;;;18.40;60.78;99632.38;5013068;28;20042;-77
2022/10/27 03:24:03;;;;;;;19.55;10.35;;;18.30;92.20;;;18.35;61.08;99629.75;5058956;28;20407;-77
2022/10/27 03:26:29;;;;;;;14.50;9.18;;;18.30;92.20;;;18.43;61.23;99637.25;5062890;28;20124;-77
2022/10/27 03:28:55;;;;;;;14.32;8.57;;;18.30;92.20;;;18.41;61.38;99638.69;5027738;28;20473;-77
2022/10/27 03:31:21;;;;;;;18.92;9.77;;;18.30;92.20;;;18.44;60.98;99644.41;5030095;28;20051;-77
2022/10/27 03:33:47;;;;;;;15.02;9.55;;;18.30;92.20;;;18.47;60.97;99644.88;5021881;28;20157;-77
2022/10/27 03:36:13;;;;;;;18.85;10.45;;;18.40;92.20;;;18.47;61.49;99642.13;5044467;28;20044;-77
2022/10/27 03:38:39;;;;;;;18.65;11.10;;;18.40;92.30;;;18.51;61.22;99643.16;5042660;28;20043;-77
2022/10/27 03:41:07;;;;;;;15.65;10.10;;;18.30;92.40;;;18.53;60.88;99647.22;5040286;28;20503;-80
2022/10/27 03:43:33;;;;;;;19.13;9.95;;;18.40;92.30;;;18.55;60.75;99652.44;5015951;28;20123;-79
2022/10/27 03:45:59;;;;;;;20.75;10.88;;;18.40;92.30;;;18.52;60.85;99648.38;5051135;28;20067;-79
2022/10/27 03:48:25;;;;;;;17.92;9.52;;;18.40;92.20;;;18.55;60.80;99649.69;5033236;28;20063;-79
2022/10/27 03:50:51;;;;;;;16.75;9.57;;;18.40;92.10;;;18.60;60.51;99647.63;5064325;28;20048;-79
2022/10/27 03:53:17;;;;;;;18.48;10.43;;;18.40;92.20;;;18.64;60.02;99661.56;5020328;28;20148;-79
2022/10/27 03:55:44;;;;;;;14.35;8.88;;;18.50;92.10;;;18.65;59.42;99649.47;5007341;28;20049;-79
2022/10/27 03:58:14;;;;;;;13.90;9.73;;;18.50;91.90;;;18.60;59.32;99646.84;5014484;28;20815;-79
2022/10/27 04:00:40;;;;;;;13.43;9.40;;;18.50;91.80;;;18.62;58.95;99655.56;5027308;28;20033;-79
2022/10/27 04:03:06;;;;;;;16.13;9.43;;;18.50;91.80;;;18.63;59.85;99663.50;5048969;28;20044;-79
2022/10/27 04:05:32;;;;;;;17.00;9.80;;;18.50;91.90;;;18.65;60.15;99660.47;5045340;28;20087;-80
2022/10/27 04:07:59;;;;;;;13.68;9.52;;;18.50;92.00;;;18.71;59.62;99663.91;5016805;28;20044;-79
2022/10/27 04:10:25;;;;;;;17.00;10.07;;;18.50;92.00;;;18.74;59.34;99658.59;5012756;28;20045;-79
2022/10/27 04:12:53;;;;;;;16.48;9.95;;;18.50;91.90;;;18.73;59.19;99658.94;5033040;28;20048;-79
2022/10/27 04:15:20;;;;;;;17.23;9.10;;;18.50;91.80;;;18.76;58.90;99664.66;5043276;28;20056;-79
2022/10/27 04:17:46;;;;;;;21.95;10.68;;;18.50;91.80;;;18.75;58.77;99664.91;5051233;28;20127;-79
2022/10/27 04:20:12;;;;;;;15.68;8.70;;;18.60;91.80;;;18.76;59.05;99667.41;5028949;28;20048;-79
2022/10/27 04:22:39;;;;;;;15.68;10.05;;;18.60;91.90;;;18.82;59.28;99668.09;5018784;28;20433;-79
2022/10/27 04:25:05;;;;;;;20.52;10.02;;;18.50;91.90;;;18.80;59.49;99656.59;5034489;28;20072;-79
2022/10/27 04:27:31;;;;;;;17.67;10.48;;;18.60;91.90;;;18.81;58.67;99661.00;5022695;28;20056;-79
2022/10/27 04:29:57;;;;;;;15.23;9.98;;;18.50;91.90;;;18.84;58.00;99661.19;5049402;28;20473;-79
2022/10/27 04:32:23;;;;;;;17.83;9.18;;;18.60;91.80;;;18.84;58.44;99655.69;4999014;28;20152;-79
2022/10/27 04:34:49;;;;;;;13.00;8.70;;;18.60;91.80;;;18.89;58.41;99664.94;5020710;28;20090;-79
2022/10/27 04:37:15;;;;;;;21.15;10.73;;;18.60;91.80;;;18.89;58.53;99659.44;5015736;28;20110;-79
2022/10/27 04:39:41;;;;;;;13.57;8.68;;;18.60;91.90;;;18.91;58.52;99655.28;5034296;28;20486;-79
2022/10/27 04:42:09;;;;;;;20.48;8.70;;;18.60;91.90;;;18.93;58.47;99657.69;5014497;28;20049;-79
2022/10/27 04:44:35;;;;;;;22.02;10.00;;;18.60;91.90;;;18.94;57.98;99659.34;5031814;28;20033;-79
2022/10/27 04:47:01;;;;;;;16.10;8.75;;;18.70;91.80;;;18.96;58.11;99662.59;5059073;28;20045;-79
2022/10/27 04:49:27;;;;;;;14.75;9.32;;;18.70;91.70;;;19.01;57.67;99668.78;5046852;28;20228;-79
2022/10/27 04:51:53;;;;;;;16.10;9.75;;;18.70;91.70;;;18.97;57.90;99672.47;5033644;28;20598;-79
2022/10/27 04:54:19;;;;;;;13.80;9.18;;;18.70;91.80;;;18.98;58.06;99674.91;5021942;28;20044;-79
2022/10/27 04:56:45;;;;;;;15.63;8.65;;;18.70;91.80;;;19.05;57.93;99671.72;5050172;28;20499;-79
2022/10/27 04:59:11;;;;;;;16.92;8.00;;;18.70;91.90;;;19.07;57.58;99675.00;5020283;28;20044;-79
2022/10/27 05:01:38;;;;;;;16.63;8.85;;;18.80;91.70;;;19.05;57.70;99677.22;5034545;28;20060;-79
2022/10/27 05:04:04;;;;;;;14.48;8.93;;;18.70;91.80;;;19.06;57.43;99676.94;5033729;28;20079;-79
2022/10/27 05:06:30;;;;;;;15.50;9.27;;;18.70;91.70;;;19.10;57.32;99685.38;5051540;28;20127;-79
2022/10/27 05:08:56;;;;;;;15.43;8.95;;;18.80;91.70;;;19.13;57.44;99687.50;5052010;28;20094;-79
2022/10/27 05:11:22;;;;;;;14.73;9.38;;;18.70;91.80;;;19.13;57.45;99687.50;5052448;28;20064;-79
2022/10/27 05:13:50;;;;;;;16.65;9.60;;;18.80;91.80;;;19.14;57.45;99689.13;5038370;28;20063;-79
2022/10/27 05:16:16;;;;;;;18.08;9.00;;;18.80;91.70;;;19.14;57.27;99693.81;5036597;28;20131;-79
2022/10/27 05:18:42;;;;;;;15.27;9.65;;;18.80;91.60;;;19.13;56.96;99701.25;5037241;28;20040;-79
2022/10/27 05:21:08;;;;;;;15.43;9.20;;;18.80;91.90;;;19.16;56.86;99686.06;5024695;28;20043;-79
2022/10/27 05:23:35;;;;;;;13.13;8.43;;;18.90;91.60;;;19.17;57.15;99698.69;5017927;28;20378;-79
2022/10/27 05:26:01;;;;;;;17.13;9.15;;;18.90;91.60;;;19.17;57.29;99701.44;5044161;28;20086;-79
2022/10/27 05:28:27;;;;;;;13.63;9.50;;;18.90;91.70;;;19.20;57.33;99704.38;5039994;28;20085;-79
2022/10/27 05:30:57;;;;;;;14.73;8.70;;;18.90;91.80;;;19.23;57.01;99706.53;5035594;28;20123;-79
2022/10/27 05:33:24;;;;;;;13.98;8.23;;;18.80;91.60;;;19.17;57.09;99705.00;5035232;28;20070;-79
2022/10/27 05:35:50;;;;;;;14.60;8.75;;;18.90;91.60;;;19.16;56.94;99714.41;5037044;28;20115;-79
2022/10/27 05:38:17;;;;;;;14.15;9.55;;;18.90;91.50;;;19.20;56.38;99711.84;5024829;28;20127;-79
2022/10/27 05:40:43;;;;;;;14.35;9.27;;;18.90;91.50;;;19.23;56.55;99720.28;5019281;28;20036;-79
2022/10/27 05:43:09;;;;;;;15.23;9.18;;;18.90;91.50;;;19.22;56.70;99723.34;5038082;28;20085;-79
2022/10/27 05:45:35;;;;;;;18.80;9.32;;;18.90;91.60;;;19.28;56.61;99728.44;5038923;28;20131;-79
2022/10/27 05:48:04;;;;;;;14.80;10.30;;;18.90;91.60;;;19.28;56.59;99719.34;5020474;28;20048;-79
2022/10/27 05:50:30;;;;;;;16.10;9.40;;;19.00;91.50;;;19.29;56.47;99730.06;5025214;28;20039;-79
2022/10/27 05:52:57;;;;;;;14.43;9.50;;;19.00;91.50;;;19.29;56.16;99734.75;5046604;28;20033;-79
2022/10/27 05:55:23;;;;;;;17.67;10.15;;;19.00;91.40;;;19.30;56.29;99728.91;5019557;28;20059;-79
2022/10/27 05:58:01;;;;;;;13.27;8.73;;;19.00;91.40;;;19.33;56.11;99733.00;5038872;28;20041;-79
2022/10/27 06:00:34;;;;;;;14.77;9.30;;;19.00;91.40;;;19.35;56.19;99738.19;5065085;28;20230;-79
2022/10/27 06:03:00;;;;;;;14.40;8.80;;;19.10;91.40;;;19.34;55.92;99745.63;5037407;28;20037;-79
2022/10/27 06:05:28;;;;;;;14.70;8.88;;;19.00;91.40;;;19.39;56.19;99734.53;5035441;28;20114;-79
2022/10/27 06:07:55;;;;;;;18.65;8.48;;;19.10;91.50;;;19.37;56.36;99745.00;5019567;28;20090;-79
2022/10/27 06:10:21;;;;;;;20.27;9.20;;;19.00;91.50;;;19.40;56.05;99741.63;5050186;28;20045;-79
2022/10/27 06:12:47;;;;;;;16.67;10.10;;;19.00;91.50;;;19.41;56.22;99742.44;5049728;28;20047;-79
2022/10/27 06:15:13;;;;;;;13.18;8.68;;;19.10;91.50;;;19.43;56.16;99753.97;5050650;28;20067;-80
2022/10/27 06:17:39;;;;;;;11.13;7.75;;;19.10;91.50;;;19.42;55.98;99749.59;5035968;28;20505;-79
2022/10/27 06:20:08;;;;;;;13.77;8.27;;;19.10;91.40;;;19.46;56.14;99756.94;5056894;28;20048;-79
2022/10/27 06:22:34;;;;;;;14.90;9.00;;;19.20;91.50;;;19.46;56.15;99761.59;5030290;28;20033;-80
2022/10/27 06:25:00;;;;;;;14.25;7.28;;;19.20;91.50;;;19.49;56.25;99770.06;5029354;28;20116;-79
2022/10/27 06:27:26;;;;;;;16.70;9.25;;;19.20;91.40;;;19.51;55.88;99769.72;5011678;28;20411;-79
2022/10/27 06:29:53;;;;;;;17.70;9.10;;;19.10;91.40;;;19.51;55.85;99772.47;5027179;28;20121;-80
2022/10/27 06:32:18;;;;;;;13.20;7.85;;;19.20;91.50;;;19.49;56.15;99767.31;4999538;28;20045;-79
2022/10/27 06:34:45;;;;;;;12.68;7.85;;;19.20;91.40;;;19.50;55.97;99765.38;5053614;28;20113;-80
2022/10/27 06:37:10;;;;;;;15.27;9.68;;;19.20;91.40;;;19.47;56.14;99763.25;5055318;28;20504;-79
2022/10/27 06:39:40;;;;;;;14.07;8.15;;;19.20;91.80;;;19.50;56.20;99771.69;5036715;28;20129;-80
2022/10/27 06:42:06;;;;;;;16.02;9.00;;;19.20;91.50;;;19.52;56.06;99766.69;5047371;28;20105;-79
2022/10/27 06:44:32;;;;;;;17.80;9.23;;;19.20;91.50;;;19.50;55.98;99768.91;5048481;28;20044;-80
2022/10/27 06:46:58;;;;;;;11.38;7.90;;;19.20;91.40;;;19.52;55.96;99777.69;5044495;28;20048;-79
2022/10/27 06:49:24;;;;;;;14.00;8.98;;;19.20;91.40;;;19.55;55.96;99776.25;5034441;28;20497;-79
2022/10/27 06:51:50;;;;;;;13.00;9.35;;;19.30;91.40;;;19.55;55.98;99781.75;5051215;28;20118;-79
2022/10/27 06:54:16;;;;;;;14.85;8.23;;;19.30;91.40;;;19.59;56.02;99792.94;5052910;28;20056;-80
2022/10/27 06:56:42;;;;;;;15.68;8.32;;;19.30;91.40;;;19.58;55.91;99794.91;5047470;28;20040;-80
2022/10/27 06:59:08;;;;;;;16.02;8.60;;;19.30;91.50;;;19.57;55.92;99790.53;5064831;28;20041;-79
2022/10/27 07:01:34;;;;;;;12.77;9.02;;;19.30;91.40;;;19.60;55.74;99794.59;5006412;28;20575;-79
2022/10/27 07:04:01;;;;;;;15.00;8.82;;;19.30;91.40;;;19.61;55.87;99787.97;5047466;28;20116;-80
2022/10/27 07:06:27;;;;;;;12.25;8.80;;;19.30;91.40;;;19.63;55.74;99791.22;5047631;28;20060;-76
2022/10/27 07:08:53;;;;;;;12.93;8.60;;;19.30;91.30;;;19.62;55.69;99797.88;5046177;28;20040;-77
2022/10/27 07:11:19;;;;;;;30.13;9.73;;;19.30;91.40;;;19.62;55.71;99795.13;5031778;28;20051;-77
2022/10/27 07:13:45;;;;;;;10.75;7.85;;;19.40;91.50;;;19.65;55.81;99803.56;5047265;28;20045;-77
2022/10/27 07:16:11;;;;;;;16.23;9.77;;;19.30;91.80;;;19.63;55.74;99804.97;5052162;28;20066;-77
2022/10/27 07:18:38;;;;;;;11.95;8.02;;;19.40;91.40;;;19.66;55.66;99805.16;5030615;28;20048;-77
2022/10/27 07:21:06;;;;;;;10.70;7.57;;;19.40;91.40;;;19.66;55.53;99805.16;5051458;28;20091;-77
2022/10/27 07:23:32;;;;;;;14.80;9.35;;;19.40;91.30;;;19.69;55.43;99810.09;5041379;28;20047;-77
2022/10/27 07:25:58;;;;;;;13.57;8.27;;;19.40;91.30;;;19.67;55.78;99815.09;5065605;28;20044;-77
2022/10/27 07:28:24;;;;;;;12.05;8.13;;;19.40;91.40;;;19.70;55.55;99822.72;5052537;28;20086;-77
2022/10/27 07:30:53;;;;;;;12.65;8.25;;;19.40;91.50;;;19.69;55.38;99820.28;5047418;28;20044;-77
2022/10/27 07:33:19;;;;;;;13.80;7.75;;;19.40;91.40;;;19.71;55.68;99824.34;5031207;28;20427;-77
2022/10/27 07:35:50;;;;;;;11.30;7.65;;;19.40;91.40;;;19.70;55.45;99832.94;5058731;28;20037;-77
2022/10/27 07:38:17;;;;;;;13.75;8.38;;;19.40;91.30;;;19.74;55.28;99836.69;5021011;28;20051;-77
2022/10/27 07:40:42;;;;;;;14.60;8.80;;;19.50;91.20;;;19.77;55.58;99835.25;5051697;28;20041;-77
2022/10/27 07:43:09;;;;;;;12.07;7.38;;;19.50;91.30;;;19.75;55.65;99832.00;5048257;28;20041;-77
2022/10/27 07:45:37;;;;;;;12.25;7.78;;;19.50;91.30;;;19.77;55.59;99832.50;5051923;28;20036;-77
2022/10/27 07:48:04;;;;;;;12.98;9.07;;;19.50;91.30;;;19.79;55.28;99835.75;5028356;28;20053;-77
2022/10/27 07:50:32;;;;;;;15.73;8.13;;;19.60;91.30;;;19.77;55.09;99829.75;5029826;28;20048;-77
2022/10/27 07:52:59;;;;;;;13.15;7.55;;;19.50;91.60;;;19.78;55.22;99839.66;5013469;28;20413;-77
2022/10/27 07:55:27;;;;;;;14.05;8.55;;;19.50;91.20;;;19.79;55.22;99839.31;4998584;28;20040;-77
2022/10/27 07:58:04;;;;;;;11.85;7.68;;;19.50;91.20;;;19.78;55.59;99837.69;5018745;28;20057;-77
2022/10/27 08:00:30;;;;;;;13.20;8.27;;;19.60;91.30;;;19.83;55.52;99825.78;5012411;28;20076;-77
2022/10/27 08:03:01;;;;;;;11.65;8.00;;;19.60;91.30;;;19.80;55.34;99831.91;5027789;28;20068;-77
2022/10/27 08:05:29;;;;;;;13.88;8.35;;;19.60;91.20;;;19.81;55.45;99828.00;5014959;28;20041;-77
2022/10/27 08:08:03;;;;;;;11.57;8.18;;;19.60;91.20;;;19.83;55.28;99834.03;5027336;28;20072;-77
2022/10/27 08:10:31;;;;;;;10.65;7.28;;;19.60;91.20;;;19.83;55.17;99831.28;5030687;28;20124;-77
2022/10/27 08:12:57;;;;;;;11.40;7.60;;;19.60;91.20;;;19.85;55.06;99835.34;5018863;28;20057;-77
2022/10/27 08:15:24;;;;;;;9.23;6.82;;;19.60;91.20;;;19.88;55.51;99833.91;5030683;28;20073;-77
2022/10/27 08:17:51;;;;;;;14.05;8.52;;;19.60;91.20;;;19.89;55.27;99830.03;5032679;28;20087;-77
2022/10/27 08:20:18;;;;;;;9.60;7.13;;;19.60;91.30;;;19.88;55.15;99837.47;5026545;28;20143;-77
2022/10/27 08:22:44;;;;;;;12.88;7.38;;;19.60;91.20;;;19.86;55.27;99836.16;5030792;28;20037;-77
2022/10/27 08:25:10;;;;;;;11.57;7.85;;;19.70;91.20;;;19.88;55.13;99847.69;5025545;28;20047;-77
2022/10/27 08:27:36;;;;;;;12.32;7.70;;;19.70;91.20;;;19.90;55.08;99845.44;5018061;28;20132;-77
2022/10/27 08:30:02;;;;;;;13.82;8.38;;;19.70;91.20;;;19.91;55.13;99847.84;4996832;28;20041;-77
2022/10/27 08:32:28;;;;;;;15.27;8.35;;;19.70;91.20;;;19.94;55.06;99852.75;5031877;28;20463;-78
2022/10/27 08:34:54;;;;;;;10.88;7.43;;;19.70;91.20;;;19.93;55.31;99853.88;5014918;28;20116;-77
2022/10/27 08:37:21;;;;;;;12.95;7.68;;;19.80;91.20;;;19.96;55.07;99855.19;5029551;28;20037;-77
2022/10/27 08:39:47;;;;;;;8.88;6.63;;;19.80;91.10;;;19.99;54.88;99860.06;4991842;28;20044;-77
2022/10/27 08:42:43;;;;;;;11.27;6.72;;;19.80;91.10;;;19.98;54.76;99858.47;5038664;28;20710;-77
2022/10/27 08:45:16;;;;;;;12.20;7.72;;;19.80;91.10;;;19.99;55.15;99857.31;5029495;28;20163;-77
2022/10/27 08:47:43;;;;;;;11.18;7.35;;;19.80;91.10;;;20.01;54.81;99855.06;5012555;28;20519;-78
2022/10/27 08:50:22;;;;;;;13.95;8.10;;;19.80;91.10;;;20.01;55.19;99849.56;5014491;28;20056;-78
2022/10/27 08:53:06;;;;;;;10.05;6.70;;;19.90;91.20;;;20.02;54.99;99845.69;5030263;28;20037;-77
2022/10/27 08:55:50;;;;;;;12.48;7.75;;;19.90;91.10;;;20.02;54.79;99845.69;5004491;28;20041;-77
2022/10/27 08:58:43;;;;;;;9.98;7.50;;;19.90;91.10;;;20.04;54.91;99842.63;5009087;28;20128;-77
2022/10/27 09:01:34;;;;;;;9.25;6.80;;;19.90;91.00;;;20.04;54.87;99854.44;5041161;28;20497;-77
2022/10/27 09:04:23;;;;;;;8.95;6.85;;;19.90;91.10;;;20.03;55.05;99852.03;5044110;28;20120;-77
2022/10/27 09:06:51;;;;;;;12.50;8.00;;;19.90;91.10;;;20.06;54.87;99857.72;4987008;28;20492;-78
2022/10/27 09:09:34;;;;;;;9.80;6.65;;;19.90;91.10;;;20.04;55.07;99848.94;5044708;28;20041;-77
2022/10/27 09:12:27;;;;;;;9.52;7.18;;;20.00;91.10;;;20.06;54.88;99860.47;5028481;28;20111;-78
2022/10/27 09:15:19;;;;;;;11.32;6.85;;;20.00;91.00;;;20.12;54.80;99861.16;5040173;28;20449;-78
2022/10/27 09:18:26;;;;;;;8.95;6.32;;;20.00;91.00;;;20.11;54.80;99860.34;5023755;28;20045;-78
2022/10/27 09:20:55;;;;;;;8.32;6.30;;;20.00;91.00;;;20.13;54.73;99869.13;5032605;28;20472;-78
2022/10/27 09:23:32;;;;;;;11.68;7.78;;;20.00;91.10;;;20.13;54.49;99869.13;5012148;28;20350;-77
2022/10/27 09:25:58;;;;;;;9.70;6.40;;;20.00;91.00;;;20.14;54.62;99870.72;5016699;28;20052;-79
2022/10/27 09:28:42;;;;;;;11.07;5.85;;;20.00;91.00;;;20.15;54.55;99877.09;5030699;28;20099;-79
2022/10/27 09:31:22;;;;;;;8.07;6.03;;;20.10;91.00;;;20.17;54.54;99874.81;5015245;28;20442;-79
2022/10/27 09:34:04;;;;;;;8.98;5.75;;;20.10;90.90;;;20.16;54.49;99868.50;5006047;28;20124;-79
2022/10/27 09:36:30;;;;;;;10.13;6.05;;;20.10;90.90;;;20.19;54.62;99860.75;4998198;28;20603;-79
2022/10/27 09:38:56;;;;;;;10.32;6.15;;;20.10;90.90;;;20.21;54.67;99864.00;5025526;28;20040;-78
2022/10/27 09:41:23;;;;;;;8.80;6.00;;;20.10;90.90;;;20.19;54.55;99857.97;5012399;28;20496;-79
2022/10/27 09:43:49;;;;;;;7.70;5.70;;;20.10;90.90;;;20.20;54.51;99865.09;5013317;28;20049;-78
2022/10/27 09:46:26;;;;;;;8.38;5.68;;;20.10;90.80;;;20.26;54.34;99861.94;5011345;28;20159;-78
2022/10/27 09:49:05;;;;;;;8.70;6.22;;;20.20;90.90;;;20.28;54.27;99858.88;5008511;28;20085;-78
2022/10/27 09:51:47;;;;;;;9.77;6.25;;;20.20;90.90;;;20.30;54.46;99857.44;4995002;28;20704;-78
2022/10/27 09:54:30;;;;;;;6.63;5.22;;;20.20;90.90;;;20.35;54.27;99854.56;5010756;28;20057;-78
2022/10/27 09:57:10;;;;;;;9.18;6.82;;;20.20;90.90;;;20.39;54.19;99861.06;5044149;28;20089;-78
2022/10/27 09:59:36;;;;;;;6.88;5.05;;;20.20;90.80;;;20.41;53.99;99855.25;5032576;28;20041;-78
2022/10/27 10:02:21;;;;;;;9.13;6.45;;;20.30;90.80;;;20.38;54.17;99855.88;5016309;28;20033;-78
2022/10/27 10:04:47;;;;;;;7.50;6.07;;;20.30;90.80;;;20.43;53.68;99855.75;5026211;28;20046;-78
2022/10/27 10:07:46;;;;;;;8.38;6.20;;;20.30;90.70;;;20.47;53.81;99850.41;5021322;28;20137;-78
2022/10/27 10:10:23;;;;;;;6.38;5.00;;;20.30;90.70;;;20.49;53.74;99860.00;5001125;28;20065;-78
2022/10/27 10:13:02;;;;;;;7.07;5.45;;;20.30;90.70;;;20.52;53.68;99850.28;5027210;28;20040;-78
2022/10/27 10:15:29;;;;;;;6.40;5.43;;;20.40;90.70;;;20.50;53.36;99844.25;5031578;28;20067;-78
2022/10/27 10:17:59;;;;;;;6.70;5.05;;;20.40;90.80;;;20.52;53.43;99848.31;5019876;28;20560;-78
2022/10/27 10:20:41;;;;;;;7.13;4.78;;;20.40;90.70;;;20.51;53.35;99848.66;5001717;28;20144;-78
2022/10/27 10:23:22;;;;;;;7.70;4.97;;;20.40;90.70;;;20.46;53.78;99857.06;5016648;28;20488;-78
2022/10/27 10:25:48;;;;;;;9.00;5.57;;;20.40;90.70;;;20.47;53.74;99862.25;5023018;28;20046;-78